createdAt,value
2023-03-15T19:04:47.290Z,75
2023-03-15T19:09:53.357Z,76
2023-03-15T19:14:59.417Z,75.5
2023-03-15T19:20:05.537Z,75.5
2023-03-15T19:25:11.616Z,75.5
2023-03-15T19:30:17.727Z,76.5
2023-03-15T19:35:23.887Z,75.5
2023-03-15T19:40:29.883Z,76
2023-03-15T19:45:35.973Z,76
2023-03-15T19:50:47.825Z,76.5
2023-03-15T19:55:59.617Z,75
2023-03-15T20:01:05.526Z,74
2023-03-15T20:06:11.674Z,76
2023-03-15T20:16:23.908Z,76.5
2023-03-15T20:21:29.912Z,76.5
2023-03-15T20:26:36.001Z,75
2023-03-15T20:31:42.144Z,71.5
2023-03-15T20:36:48.168Z,74
2023-03-15T20:41:54.249Z,74.5
2023-03-15T20:47:00.432Z,73.5
2023-03-15T20:52:06.467Z,73.5
2023-03-15T20:57:12.631Z,74
2023-03-15T21:02:18.659Z,75
2023-03-15T21:07:24.770Z,75
2023-03-15T21:12:30.829Z,74
2023-03-15T21:17:36.947Z,74
2023-03-15T21:22:43.041Z,73.5
2023-03-15T21:27:49.102Z,74
2023-03-15T21:32:55.246Z,73
2023-03-15T21:38:01.280Z,73
2023-03-15T21:43:12.978Z,74
2023-03-15T21:48:19.114Z,74
2023-03-15T21:53:25.226Z,72.5
2023-03-15T21:58:31.304Z,73
2023-03-15T22:03:37.400Z,73
2023-03-15T22:08:43.658Z,73.5
2023-03-15T22:13:49.573Z,74
2023-03-15T22:24:01.859Z,72.5
2023-03-15T22:29:07.850Z,74.5
2023-03-15T22:34:13.965Z,75
2023-03-15T22:39:20.056Z,74
2023-03-15T22:44:26.157Z,73.5
2023-03-15T22:49:32.339Z,74.5
2023-03-15T22:54:38.365Z,76
2023-03-15T22:59:44.405Z,73.5
2023-03-15T23:04:50.603Z,73.5
2023-03-15T23:09:56.707Z,74.5
2023-03-15T23:15:04.187Z,74.5
2023-03-15T23:20:08.772Z,75
2023-03-15T23:25:14.918Z,75.5
2023-03-15T23:30:26.837Z,75.5
2023-03-15T23:35:38.397Z,76
2023-03-15T23:40:44.508Z,75.5
2023-03-15T23:45:50.563Z,75.5
2023-03-15T23:50:56.862Z,76.5
2023-03-15T23:56:02.774Z,75.5
